createdAt,value
2018-11-14T00:00:31.511Z,61.40
2018-11-14T00:03:01.874Z,63.77
2018-11-14T00:05:31.125Z,64.27
2018-11-14T00:08:00.419Z,63.57
2018-11-14T00:10:29.608Z,68.40
2018-11-14T00:12:58.812Z,67.80
2018-11-14T00:15:27.889Z,62.23
2018-11-14T00:17:57.045Z,56.60
2018-11-14T00:20:26.239Z,55.50
2018-11-14T00:22:55.649Z,51.37
2018-11-14T00:25:24.915Z,52.00
2018-11-14T00:27:54.261Z,54.73
2018-11-14T00:30:24.686Z,52.37
2018-11-14T00:32:54.023Z,52.10
2018-11-14T00:35:23.215Z,54.43
2018-11-14T00:37:52.639Z,56.63
2018-11-14T00:40:22.039Z,55.97
2018-11-14T00:42:51.525Z,58.20
2018-11-14T00:45:22.000Z,59.00
2018-11-14T00:47:51.621Z,60.17
2018-11-14T00:50:21.338Z,57.43
2018-11-14T00:52:50.478Z,54.87
2018-11-14T00:55:20.973Z,58.80
2018-11-14T00:57:51.004Z,57.37
2018-11-14T01:00:22.527Z,56.47
2018-11-14T01:02:51.878Z,60.43
2018-11-14T01:05:21.149Z,56.03
2018-11-14T01:07:50.450Z,55.80
2018-11-14T01:10:21.194Z,55.83
2018-11-14T01:12:51.016Z,58.90
2018-11-14T01:15:22.662Z,54.63
2018-11-14T01:17:51.926Z,54.93
2018-11-14T01:20:22.230Z,56.20
2018-11-14T01:22:51.452Z,66.43
2018-11-14T01:25:20.867Z,68.87
2018-11-14T01:27:50.177Z,67.40
2018-11-14T01:30:23.178Z,61.23
2018-11-14T01:32:52.797Z,50.23
2018-11-14T01:35:22.171Z,50.60
2018-11-14T01:37:51.582Z,49.70
2018-11-14T01:40:22.798Z,52.37
2018-11-14T01:42:54.502Z,53.30
2018-11-14T01:45:24.010Z,55.37
2018-11-14T01:47:53.361Z,54.40
2018-11-14T01:50:22.586Z,53.03
2018-11-14T01:52:51.982Z,51.80
2018-11-14T01:55:21.744Z,49.50
2018-11-14T01:57:50.973Z,50.83
2018-11-14T02:00:21.727Z,54.20
2018-11-14T02:02:51.137Z,57.20
2018-11-14T02:05:20.617Z,56.40
2018-11-14T02:07:49.819Z,54.73
2018-11-14T02:10:20.090Z,55.17
2018-11-14T02:12:49.568Z,52.93
2018-11-14T02:15:21.906Z,51.57
2018-11-14T02:17:51.352Z,48.90
2018-11-14T02:20:20.856Z,49.03
2018-11-14T02:22:50.197Z,47.23
2018-11-14T02:25:19.456Z,42.00
2018-11-14T02:27:48.438Z,43.77
2018-11-14T02:30:19.686Z,41.73
2018-11-14T02:32:49.027Z,41.07
2018-11-14T02:35:18.315Z,37.77
2018-11-14T02:37:47.947Z,37.23
2018-11-14T02:40:19.139Z,36.07
2018-11-14T02:42:48.651Z,36.73
2018-11-14T02:45:17.919Z,36.80
2018-11-14T02:47:47.170Z,35.53
2018-11-14T02:50:17.432Z,35.57
2018-11-14T02:52:46.671Z,33.83
2018-11-14T02:55:16.837Z,33.10
2018-11-14T02:57:46.450Z,33.43
2018-11-14T03:00:17.582Z,32.77
2018-11-14T03:02:46.874Z,34.53
2018-11-14T03:05:16.386Z,33.07
2018-11-14T03:07:45.657Z,33.37
2018-11-14T03:10:17.286Z,34.30
2018-11-14T03:12:46.639Z,34.00
2018-11-14T03:15:18.642Z,33.90
2018-11-14T03:17:48.000Z,33.47
2018-11-14T03:20:18.341Z,33.30
2018-11-14T03:22:47.694Z,33.50
2018-11-14T03:25:16.882Z,33.07
2018-11-14T03:27:46.101Z,32.27
2018-11-14T03:30:16.487Z,31.57
2018-11-14T03:32:46.147Z,31.47
2018-11-14T03:35:15.849Z,32.53
2018-11-14T03:37:45.131Z,35.10
2018-11-14T03:40:15.396Z,33.63
2018-11-14T03:42:44.600Z,35.43
2018-11-14T03:45:14.788Z,33.27
2018-11-14T03:47:44.101Z,32.43
2018-11-14T03:50:13.324Z,30.85
2018-11-14T03:52:42.630Z,31.40
2018-11-14T03:55:11.929Z,31.50
2018-11-14T03:57:41.259Z,33.03
2018-11-14T04:00:12.774Z,31.50
2018-11-14T04:02:42.303Z,31.50
2018-11-14T04:05:11.666Z,30.27
2018-11-14T04:07:41.834Z,30.47
2018-11-14T04:10:12.906Z,30.87
2018-11-14T04:12:42.309Z,30.03
2018-11-14T04:15:12.803Z,32.83
2018-11-14T04:17:41.968Z,33.57
2018-11-14T04:20:13.386Z,35.10
2018-11-14T04:22:42.674Z,34.80
2018-11-14T04:25:13.949Z,34.50
2018-11-14T04:27:43.793Z,33.10
2018-11-14T04:30:15.558Z,35.67
2018-11-14T04:32:45.044Z,36.33
2018-11-14T04:35:15.172Z,35.17
2018-11-14T04:37:44.575Z,34.33
2018-11-14T04:40:16.685Z,34.83
2018-11-14T04:42:45.975Z,36.30
2018-11-14T04:45:17.645Z,40.03
2018-11-14T04:47:46.834Z,35.30
2018-11-14T04:50:18.035Z,39.73
2018-11-14T04:52:48.293Z,37.20
2018-11-14T04:55:18.709Z,37.63
2018-11-14T04:57:48.207Z,34.90
2018-11-14T05:00:18.357Z,38.00
2018-11-14T05:02:48.556Z,39.17
2018-11-14T05:05:18.978Z,32.73
2018-11-14T05:07:48.323Z,33.43
2018-11-14T05:10:19.958Z,32.80
2018-11-14T05:12:49.628Z,32.50
2018-11-14T05:15:20.915Z,37.30
2018-11-14T05:17:50.706Z,37.57
2018-11-14T05:20:20.732Z,37.87
2018-11-14T05:22:50.049Z,40.40
2018-11-14T05:25:19.642Z,37.40
2018-11-14T05:27:48.969Z,39.33
2018-11-14T05:30:19.667Z,36.33
2018-11-14T05:32:49.913Z,34.47
2018-11-14T05:35:18.868Z,33.17
2018-11-14T05:37:48.612Z,34.47
2018-11-14T05:40:20.035Z,37.83
2018-11-14T05:42:49.770Z,34.17
2018-11-14T05:45:23.386Z,35.20
2018-11-14T05:47:52.855Z,37.07
2018-11-14T05:50:22.941Z,36.00
2018-11-14T05:52:52.221Z,37.83
2018-11-14T05:55:21.521Z,39.27
2018-11-14T05:57:51.139Z,41.07
2018-11-14T06:00:35.158Z,42.57
2018-11-14T06:03:05.202Z,41.90
2018-11-14T06:05:34.498Z,40.65
2018-11-14T06:08:03.787Z,40.55
2018-11-14T06:10:33.014Z,41.55
2018-11-14T06:13:02.403Z,42.13
2018-11-14T06:15:31.950Z,45.48
2018-11-14T06:18:01.232Z,43.45
2018-11-14T06:20:30.439Z,44.90
2018-11-14T06:22:59.721Z,44.03
2018-11-14T06:25:31.236Z,42.17
2018-11-14T06:28:01.879Z,40.23
2018-11-14T06:30:31.280Z,38.00
2018-11-14T06:33:01.118Z,40.17
2018-11-14T06:35:30.435Z,38.90
2018-11-14T06:37:59.829Z,40.45
2018-11-14T06:40:29.245Z,39.45
2018-11-14T06:42:58.330Z,39.33
2018-11-14T06:45:28.829Z,42.40
2018-11-14T06:47:59.302Z,46.73
2018-11-14T06:50:28.576Z,49.27
2018-11-14T06:53:01.339Z,47.10
2018-11-14T06:55:30.560Z,48.25
2018-11-14T06:58:00.020Z,46.60
2018-11-14T07:00:31.231Z,49.83
2018-11-14T07:03:01.418Z,49.18
2018-11-14T07:05:30.889Z,50.00
2018-11-14T07:08:00.036Z,61.50
2018-11-14T07:10:30.774Z,50.12
2018-11-14T07:13:05.728Z,55.33
2018-11-14T07:15:35.692Z,48.95
2018-11-14T07:18:05.400Z,49.40
2018-11-14T07:20:35.937Z,50.52
2018-11-14T07:23:05.286Z,50.20
2018-11-14T07:25:34.710Z,47.27
2018-11-14T07:28:03.900Z,46.33
2018-11-14T07:30:33.566Z,45.55
2018-11-14T07:33:04.891Z,48.70
2018-11-14T07:35:34.132Z,52.05
2018-11-14T07:38:43.285Z,58.20
2018-11-14T07:41:13.826Z,63.45
2018-11-14T07:43:43.519Z,62.27
2018-11-14T07:46:13.233Z,60.35
2018-11-14T07:48:42.831Z,62.53
2018-11-14T07:51:12.254Z,52.45
2018-11-14T07:53:41.439Z,46.92
2018-11-14T07:56:10.707Z,47.40
2018-11-14T07:58:39.948Z,46.25
2018-11-14T08:01:09.455Z,43.23
2018-11-14T08:03:38.745Z,44.90
2018-11-14T08:06:08.106Z,44.48
2018-11-14T08:08:37.324Z,42.95
2018-11-14T08:11:07.139Z,41.80
2018-11-14T08:13:37.394Z,41.68
2018-11-14T08:16:06.875Z,43.75
2018-11-14T08:18:36.330Z,45.80
2018-11-14T08:21:05.730Z,44.38
2018-11-14T08:23:35.314Z,44.03
2018-11-14T08:26:04.948Z,45.15
2018-11-14T08:28:34.254Z,43.50
2018-11-14T08:31:03.510Z,43.33
2018-11-14T08:33:32.734Z,45.33
2018-11-14T08:36:02.055Z,43.63
2018-11-14T08:38:31.303Z,43.87
2018-11-14T08:41:00.513Z,46.48
2018-11-14T08:43:29.820Z,45.23
2018-11-14T08:48:34.886Z,43.92
2018-11-14T08:51:04.088Z,44.20
2018-11-14T08:53:33.246Z,43.65
2018-11-14T08:56:02.398Z,43.73
2018-11-14T08:58:31.545Z,43.25
2018-11-14T09:01:00.842Z,42.55
2018-11-14T09:03:30.068Z,36.58
2018-11-14T09:05:59.329Z,35.13
2018-11-14T09:08:28.591Z,34.73
2018-11-14T09:10:58.211Z,33.08
2018-11-14T09:13:27.431Z,30.80
2018-11-14T09:15:56.791Z,35.50
2018-11-14T09:18:26.208Z,31.82
2018-11-14T09:20:55.659Z,29.92
2018-11-14T09:23:25.534Z,29.45
2018-11-14T09:25:54.783Z,28.87
2018-11-14T09:28:23.986Z,31.20
2018-11-14T09:30:53.211Z,29.12
2018-11-14T09:33:22.455Z,31.60
2018-11-14T09:35:51.558Z,33.05
2018-11-14T09:38:20.891Z,33.20
2018-11-14T09:40:50.145Z,35.15
2018-11-14T09:43:19.414Z,34.98
2018-11-14T09:45:48.774Z,53.87
2018-11-14T09:48:18.027Z,72.90
2018-11-14T09:50:47.337Z,49.38
2018-11-14T09:53:16.514Z,35.23
2018-11-14T09:55:45.829Z,30.20
2018-11-14T09:58:15.175Z,28.95
2018-11-14T10:00:44.404Z,30.65
2018-11-14T10:03:16.067Z,29.45
2018-11-14T10:05:45.261Z,29.15
2018-11-14T10:08:14.520Z,29.72
2018-11-14T10:10:43.913Z,29.35
2018-11-14T10:13:13.174Z,30.17
2018-11-14T10:15:42.544Z,29.52
2018-11-14T10:18:11.651Z,30.82
2018-11-14T10:20:40.990Z,31.33
2018-11-14T10:23:10.254Z,30.65
2018-11-14T10:25:39.113Z,33.70
2018-11-14T10:28:08.938Z,33.35
2018-11-14T10:30:38.303Z,31.62
2018-11-14T10:33:07.671Z,31.85
2018-11-14T10:35:37.072Z,30.30
2018-11-14T10:38:06.817Z,31.57
2018-11-14T10:40:36.239Z,34.03
2018-11-14T10:43:05.593Z,33.88
2018-11-14T10:45:34.807Z,32.98
2018-11-14T10:48:04.165Z,31.70
2018-11-14T10:50:33.430Z,30.82
2018-11-14T10:53:02.726Z,31.73
2018-11-14T10:55:32.038Z,32.95
2018-11-14T10:58:01.215Z,34.63
2018-11-14T11:00:35.597Z,33.38
2018-11-14T11:03:09.715Z,34.75
2018-11-14T11:05:43.946Z,35.40
2018-11-14T11:08:18.959Z,34.03
2018-11-14T11:10:52.183Z,35.88
2018-11-14T11:13:26.528Z,33.70
2018-11-14T11:16:00.634Z,35.92
2018-11-14T11:18:31.487Z,36.08
2018-11-14T11:21:00.723Z,39.27
2018-11-14T11:23:30.236Z,37.35
2018-11-14T11:25:59.502Z,40.78
2018-11-14T11:28:28.780Z,41.90
2018-11-14T11:30:58.103Z,44.35
2018-11-14T11:33:27.401Z,39.38
2018-11-14T11:35:56.694Z,40.35
2018-11-14T11:38:26.210Z,38.95
2018-11-14T11:40:55.775Z,37.35
2018-11-14T11:43:25.004Z,36.68
2018-11-14T11:45:54.116Z,36.58
2018-11-14T11:48:23.521Z,40.65
2018-11-14T11:50:52.820Z,39.53
2018-11-14T11:53:22.456Z,39.58
2018-11-14T11:55:51.730Z,40.48
2018-11-14T11:58:21.008Z,70.95
2018-11-14T12:00:50.315Z,49.63
2018-11-14T12:03:19.390Z,53.60
2018-11-14T12:05:48.829Z,66.80
2018-11-14T12:08:17.865Z,99.42
2018-11-14T12:10:47.196Z,41.88
2018-11-14T12:13:16.539Z,38.90
2018-11-14T12:15:45.754Z,40.70
2018-11-14T12:18:15.041Z,40.52
2018-11-14T12:20:44.339Z,42.08
2018-11-14T12:23:13.594Z,42.35
2018-11-14T12:25:42.930Z,41.48
2018-11-14T12:28:12.350Z,43.58
2018-11-14T12:30:41.518Z,42.93
2018-11-14T12:33:10.842Z,44.35
2018-11-14T12:35:40.021Z,46.68
2018-11-14T12:38:09.391Z,43.87
2018-11-14T12:40:38.830Z,47.67
2018-11-14T12:43:08.354Z,46.68
2018-11-14T12:45:37.579Z,46.63
2018-11-14T12:48:07.081Z,59.18
2018-11-14T12:50:36.571Z,96.82
2018-11-14T12:53:05.891Z,52.53
2018-11-14T12:55:34.897Z,73.90
2018-11-14T12:58:05.821Z,50.15
2018-11-14T13:00:35.114Z,48.50
2018-11-14T13:03:04.523Z,49.85
2018-11-14T13:05:33.846Z,47.03
2018-11-14T13:08:03.339Z,50.67
2018-11-14T13:10:32.927Z,51.80
2018-11-14T13:13:02.381Z,49.58
2018-11-14T13:15:31.702Z,51.13
2018-11-14T13:18:00.862Z,48.08
2018-11-14T13:20:30.133Z,50.58
2018-11-14T13:22:59.405Z,52.45
2018-11-14T13:25:28.636Z,50.15
2018-11-14T13:27:58.447Z,50.45
2018-11-14T13:30:27.529Z,53.60
2018-11-14T13:32:56.661Z,55.10
2018-11-14T13:35:26.295Z,56.18
2018-11-14T13:37:55.504Z,55.17
2018-11-14T13:40:25.235Z,65.95
2018-11-14T13:42:54.546Z,51.48
2018-11-14T13:45:23.774Z,51.80
2018-11-14T13:47:53.299Z,50.88
2018-11-14T13:50:23.248Z,49.73
2018-11-14T13:52:52.597Z,48.13
2018-11-14T13:55:22.194Z,46.95
2018-11-14T13:57:52.235Z,50.63
2018-11-14T14:00:22.454Z,50.50
2018-11-14T14:02:52.818Z,49.80
2018-11-14T14:05:23.514Z,48.90
2018-11-14T14:07:52.921Z,49.42
2018-11-14T14:10:22.225Z,50.03
2018-11-14T14:12:53.010Z,49.33
2018-11-14T14:15:23.574Z,53.55
2018-11-14T14:17:52.846Z,49.93
2018-11-14T14:20:52.138Z,53.20
2018-11-14T14:23:21.467Z,48.23
2018-11-14T14:25:50.679Z,49.60
2018-11-14T14:28:19.904Z,50.00
2018-11-14T14:30:49.224Z,52.70
2018-11-14T14:33:18.292Z,53.73
2018-11-14T14:35:47.754Z,56.80
2018-11-14T14:38:17.126Z,58.50
2018-11-14T14:40:46.690Z,55.25
2018-11-14T14:43:15.799Z,54.77
2018-11-14T14:45:45.122Z,51.45
2018-11-14T14:48:14.279Z,52.60
2018-11-14T14:50:43.388Z,46.00
2018-11-14T14:53:12.640Z,47.17
2018-11-14T14:55:41.913Z,44.83
2018-11-14T14:58:11.431Z,40.92
2018-11-14T15:00:40.806Z,40.80
2018-11-14T15:03:10.349Z,39.65
2018-11-14T15:05:39.656Z,38.58
2018-11-14T15:08:09.074Z,38.53
2018-11-14T15:10:38.325Z,39.95
2018-11-14T15:13:07.756Z,38.85
2018-11-14T15:15:37.203Z,38.85
2018-11-14T15:18:06.547Z,40.30
2018-11-14T15:20:35.970Z,40.90
2018-11-14T15:23:05.194Z,47.93
2018-11-14T15:25:34.470Z,45.75
2018-11-14T15:28:04.074Z,41.05
2018-11-14T15:30:33.340Z,46.02
2018-11-14T15:33:02.824Z,40.78
2018-11-14T15:35:32.232Z,40.67
2018-11-14T15:38:01.444Z,38.53
2018-11-14T15:40:31.079Z,38.78
2018-11-14T15:43:00.367Z,41.30
2018-11-14T15:45:30.312Z,36.48
2018-11-14T15:47:59.709Z,30.30
2018-11-14T15:50:30.207Z,36.75
2018-11-14T15:53:00.178Z,38.25
2018-11-14T15:55:29.549Z,37.80
2018-11-14T15:57:58.919Z,37.75
2018-11-14T16:00:29.283Z,37.10
2018-11-14T16:02:58.599Z,35.25
2018-11-14T16:05:29.371Z,39.63
2018-11-14T16:07:59.827Z,40.20
2018-11-14T16:10:30.315Z,37.93
2018-11-14T16:12:59.760Z,37.55
2018-11-14T16:15:32.350Z,37.53
2018-11-14T16:18:01.569Z,38.50
2018-11-14T16:20:30.986Z,35.48
2018-11-14T16:23:00.134Z,39.27
2018-11-14T16:25:29.577Z,38.80
2018-11-14T16:28:00.225Z,41.25
2018-11-14T16:30:32.418Z,41.25
2018-11-14T16:33:03.151Z,42.98
2018-11-14T16:35:32.366Z,41.70
2018-11-14T16:38:01.691Z,40.17
2018-11-14T16:40:32.035Z,63.73
2018-11-14T16:43:02.661Z,45.65
2018-11-14T16:45:32.190Z,43.42
2018-11-14T16:48:01.439Z,44.73
2018-11-14T16:50:30.670Z,37.60
2018-11-14T16:52:59.869Z,37.58
2018-11-14T16:55:29.041Z,46.75
2018-11-14T16:57:58.702Z,40.52
2018-11-14T17:00:30.023Z,31.25
2018-11-14T17:02:59.415Z,28.87
2018-11-14T17:05:29.785Z,27.55
2018-11-14T17:07:58.841Z,25.57
2018-11-14T17:10:28.376Z,23.87
2018-11-14T17:12:58.893Z,23.27
2018-11-14T17:15:28.470Z,24.47
2018-11-14T17:17:57.740Z,24.37
2018-11-14T17:20:26.888Z,23.80
2018-11-14T17:22:56.352Z,23.60
2018-11-14T17:25:25.723Z,24.35
2018-11-14T17:27:55.107Z,23.38
2018-11-14T17:30:25.451Z,23.80
2018-11-14T17:32:55.085Z,24.72
2018-11-14T17:35:24.490Z,23.05
2018-11-14T17:37:53.770Z,21.42
2018-11-14T17:40:27.973Z,23.02
2018-11-14T17:42:57.300Z,21.82
2018-11-14T17:45:27.824Z,22.85
2018-11-14T17:47:57.637Z,24.72
2018-11-14T17:50:28.177Z,23.40
2018-11-14T17:52:58.015Z,23.25
2018-11-14T17:55:27.491Z,26.45
2018-11-14T17:57:56.898Z,28.32
2018-11-14T18:00:27.387Z,29.63
2018-11-14T18:02:56.762Z,30.02
2018-11-14T18:05:27.190Z,26.65
2018-11-14T18:07:56.534Z,24.07
2018-11-14T18:10:26.976Z,22.10
2018-11-14T18:12:57.262Z,22.05
2018-11-14T18:15:26.467Z,21.77
2018-11-14T18:17:56.326Z,22.27
2018-11-14T18:20:27.022Z,22.10
2018-11-14T18:22:56.676Z,20.62
2018-11-14T18:25:26.058Z,22.73
2018-11-14T18:27:55.434Z,21.60
2018-11-14T18:30:26.566Z,26.05
2018-11-14T18:32:56.661Z,25.80
2018-11-14T18:35:26.623Z,26.50
2018-11-14T18:37:56.515Z,26.42
2018-11-14T18:40:27.178Z,28.32
2018-11-14T18:42:56.448Z,30.02
2018-11-14T18:45:27.283Z,30.62
2018-11-14T18:47:57.121Z,28.00
2018-11-14T18:50:26.606Z,26.75
2018-11-14T18:52:56.005Z,27.95
2018-11-14T18:55:26.526Z,28.23
2018-11-14T18:57:55.969Z,26.12
2018-11-14T19:00:26.551Z,27.02
2018-11-14T19:02:55.929Z,27.67
2018-11-14T19:05:25.472Z,24.75
2018-11-14T19:07:54.610Z,27.55
2018-11-14T19:10:25.217Z,26.50
2018-11-14T19:12:54.562Z,24.07
2018-11-14T19:15:26.029Z,25.82
2018-11-14T19:17:55.449Z,24.60
2018-11-14T19:20:26.983Z,25.40
2018-11-14T19:22:57.002Z,25.20
2018-11-14T19:25:28.770Z,26.50
2018-11-14T19:27:58.098Z,25.52
2018-11-14T19:30:29.388Z,25.82
2018-11-14T19:32:59.328Z,24.95
2018-11-14T19:35:28.622Z,25.50
2018-11-14T19:37:58.207Z,28.32
2018-11-14T19:40:31.615Z,32.65
2018-11-14T19:43:02.075Z,30.00
2018-11-14T19:45:33.590Z,26.27
2018-11-14T19:48:03.018Z,23.10
2018-11-14T19:50:32.861Z,22.32
2018-11-14T19:53:02.043Z,22.22
2018-11-14T19:55:31.487Z,20.97
2018-11-14T19:58:01.834Z,22.67
2018-11-14T20:00:39.463Z,27.20
2018-11-14T20:03:09.421Z,23.25
2018-11-14T20:05:38.651Z,22.65
2018-11-14T20:08:08.066Z,21.12
2018-11-14T20:10:37.313Z,20.55
2018-11-14T20:13:06.558Z,22.62
2018-11-14T20:15:37.117Z,21.90
2018-11-14T20:18:06.883Z,22.48
2018-11-14T20:20:37.182Z,22.50
2018-11-14T20:23:06.628Z,23.27
2018-11-14T20:25:36.102Z,25.43
2018-11-14T20:28:05.619Z,25.80
2018-11-14T20:30:36.503Z,25.75
2018-11-14T20:33:07.986Z,26.25
2018-11-14T20:35:37.238Z,25.77
2018-11-14T20:38:06.930Z,26.57
2018-11-14T20:40:41.159Z,26.42
2018-11-14T20:43:10.541Z,26.12
2018-11-14T20:45:39.846Z,26.35
2018-11-14T20:48:09.026Z,25.90
2018-11-14T20:50:38.438Z,25.00
2018-11-14T20:53:08.822Z,24.95
2018-11-14T20:55:38.067Z,24.57
2018-11-14T20:58:07.339Z,25.72
2018-11-14T21:00:37.528Z,26.57
2018-11-14T21:03:07.700Z,24.90
2018-11-14T21:05:37.163Z,27.15
2018-11-14T21:08:06.929Z,25.60
2018-11-14T21:10:36.479Z,26.33
2018-11-14T21:13:06.360Z,25.55
2018-11-14T21:15:37.128Z,27.02
2018-11-14T21:18:07.114Z,27.15
2018-11-14T21:20:36.572Z,26.75
2018-11-14T21:23:07.018Z,26.23
2018-11-14T21:25:36.367Z,26.42
2018-11-14T21:28:06.159Z,26.37
2018-11-14T21:30:35.636Z,26.20
2018-11-14T21:33:05.277Z,26.87
2018-11-14T21:35:36.012Z,27.27
2018-11-14T21:38:06.532Z,28.15
2018-11-14T21:40:35.773Z,27.40
2018-11-14T21:43:04.881Z,26.55
2018-11-14T21:45:34.314Z,27.55
2018-11-14T21:48:08.764Z,26.93
2018-11-14T21:50:38.146Z,25.60
2018-11-14T21:53:07.474Z,25.12
2018-11-14T21:55:36.686Z,27.65
2018-11-14T21:58:06.139Z,26.70
2018-11-14T22:00:37.161Z,27.37
2018-11-14T22:03:07.158Z,26.68
2018-11-14T22:05:36.588Z,27.62
2018-11-14T22:08:05.870Z,26.27
2018-11-14T22:10:35.073Z,26.70
2018-11-14T22:13:04.398Z,27.27
2018-11-14T22:15:34.022Z,26.97
2018-11-14T22:18:03.321Z,27.17
2018-11-14T22:20:32.519Z,26.75
2018-11-14T22:23:01.813Z,27.00
2018-11-14T22:25:31.220Z,25.27
2018-11-14T22:28:00.494Z,24.82
2018-11-14T22:30:31.710Z,28.30
2018-11-14T22:33:01.166Z,25.75
2018-11-14T22:35:31.552Z,24.52
2018-11-14T22:38:00.791Z,26.23
2018-11-14T22:40:31.206Z,25.05
2018-11-14T22:43:00.278Z,25.57
2018-11-14T22:45:32.226Z,26.57
2018-11-14T22:48:01.470Z,24.85
2018-11-14T22:50:30.682Z,26.30
2018-11-14T22:52:59.846Z,27.30
2018-11-14T22:55:28.726Z,26.55
2018-11-14T22:57:57.944Z,27.55
2018-11-14T23:00:34.417Z,26.50
2018-11-14T23:03:04.055Z,26.65
2018-11-14T23:05:33.487Z,27.82
2018-11-14T23:08:02.686Z,27.65
2018-11-14T23:10:31.854Z,27.05
2018-11-14T23:13:01.011Z,27.60
2018-11-14T23:15:30.493Z,26.42
2018-11-14T23:17:59.748Z,28.32
2018-11-14T23:20:29.149Z,26.93
2018-11-14T23:22:58.493Z,28.27
2018-11-14T23:25:27.752Z,26.75
2018-11-14T23:27:57.450Z,29.05
2018-11-14T23:30:27.556Z,28.57
2018-11-14T23:32:57.431Z,29.27
2018-11-14T23:35:30.605Z,29.45
2018-11-14T23:38:01.221Z,29.25
2018-11-14T23:40:30.589Z,28.38
2018-11-14T23:42:59.794Z,28.73
2018-11-14T23:45:29.576Z,27.75
2018-11-14T23:47:58.943Z,27.93
2018-11-14T23:50:31.144Z,27.42
2018-11-14T23:53:01.571Z,27.07
2018-11-14T23:55:31.527Z,27.55
2018-11-14T23:58:01.140Z,26.75
